sensor_id;sensor_type;location;lat;lon;timestamp;pressure;altitude;pressure_sealevel;temperature;humidity
23363;BME280;11853;48.080;11.960;2022-07-29T00:00:17;94816.44;;;21.70;71.40
23363;BME280;11853;48.080;11.960;2022-07-29T00:02:42;94816.91;;;21.67;71.17
23363;BME280;11853;48.080;11.960;2022-07-29T00:05:08;94817.34;;;21.64;71.51
23363;BME280;11853;48.080;11.960;2022-07-29T00:07:34;94811.16;;;21.57;71.57
23363;BME280;11853;48.080;11.960;2022-07-29T00:09:59;94811.41;;;21.55;71.85
23363;BME280;11853;48.080;11.960;2022-07-29T00:12:25;94814.09;;;21.55;71.71
23363;BME280;11853;48.080;11.960;2022-07-29T00:14:51;94814.09;;;21.55;72.53
23363;BME280;11853;48.080;11.960;2022-07-29T00:17:17;94805.19;;;21.55;72.29
23363;BME280;11853;48.080;11.960;2022-07-29T00:19:42;94807.44;;;21.58;72.45
23363;BME280;11853;48.080;11.960;2022-07-29T00:22:08;94805.84;;;21.50;72.27
23363;BME280;11853;48.080;11.960;2022-07-29T00:24:34;94816.69;;;21.44;72.41
23363;BME280;11853;48.080;11.960;2022-07-29T00:26:59;94807.59;;;21.38;72.13
23363;BME280;11853;48.080;11.960;2022-07-29T00:29:25;94801.19;;;21.32;71.37
23363;BME280;11853;48.080;11.960;2022-07-29T00:31:50;94805.97;;;21.30;71.40
23363;BME280;11853;48.080;11.960;2022-07-29T00:34:16;94800.94;;;21.34;71.50
23363;BME280;11853;48.080;11.960;2022-07-29T00:37:00;94801.19;;;21.32;71.63
23363;BME280;11853;48.080;11.960;2022-07-29T00:39:26;94803.47;;;21.29;71.67
23363;BME280;11853;48.080;11.960;2022-07-29T00:41:51;94796.81;;;21.31;72.27
23363;BME280;11853;48.080;11.960;2022-07-29T00:44:17;94800.94;;;21.34;72.77
23363;BME280;11853;48.080;11.960;2022-07-29T00:46:42;94791.81;;;21.35;72.49
23363;BME280;11853;48.080;11.960;2022-07-29T00:49:08;94789.94;;;21.35;72.94
23363;BME280;11853;48.080;11.960;2022-07-29T00:51:37;94783.94;;;21.33;73.09
23363;BME280;11853;48.080;11.960;2022-07-29T00:54:04;94785.56;;;21.34;73.42
23363;BME280;11853;48.080;11.960;2022-07-29T00:56:31;94784.56;;;21.35;73.51
23363;BME280;11853;48.080;11.960;2022-07-29T00:58:58;94774.78;;;21.34;73.94
23363;BME280;11853;48.080;11.960;2022-07-29T01:01:24;94773.13;;;21.33;73.55
23363;BME280;11853;48.080;11.960;2022-07-29T01:03:50;94764.44;;;21.31;73.06
23363;BME280;11853;48.080;11.960;2022-07-29T01:06:17;94767.19;;;21.25;72.48
23363;BME280;11853;48.080;11.960;2022-07-29T01:08:44;94767.25;;;21.18;73.00
23363;BME280;11853;48.080;11.960;2022-07-29T01:11:10;94759.59;;;21.15;73.80
23363;BME280;11853;48.080;11.960;2022-07-29T01:13:36;94772.03;;;21.16;74.59
23363;BME280;11853;48.080;11.960;2022-07-29T01:16:08;94765.22;;;21.13;75.12
23363;BME280;11853;48.080;11.960;2022-07-29T01:18:39;94776.19;;;21.19;75.49
23363;BME280;11853;48.080;11.960;2022-07-29T01:21:37;94776.38;;;21.17;75.97
23363;BME280;11853;48.080;11.960;2022-07-29T01:30:20;94773.69;;;21.17;76.04
23363;BME280;11853;48.080;11.960;2022-07-29T01:32:50;94763.56;;;21.12;76.40
23363;BME280;11853;48.080;11.960;2022-07-29T01:35:20;94774.19;;;21.07;75.94
23363;BME280;11853;48.080;11.960;2022-07-29T01:37:57;94767.53;;;21.10;75.57
23363;BME280;11853;48.080;11.960;2022-07-29T01:42:57;94762.78;;;21.05;75.52
23363;BME280;11853;48.080;11.960;2022-07-29T01:45:43;94761.53;;;21.08;75.42
23363;BME280;11853;48.080;11.960;2022-07-29T01:49:13;94760.09;;;21.05;74.54
23363;BME280;11853;48.080;11.960;2022-07-29T01:51:14;94758.88;;;21.01;74.98
23363;BME280;11853;48.080;11.960;2022-07-29T01:54:16;94759.09;;;21.00;74.47
23363;BME280;11853;48.080;11.960;2022-07-29T01:56:45;94757.44;;;20.99;75.75
23363;BME280;11853;48.080;11.960;2022-07-29T01:59:12;94760.16;;;20.99;75.89
23363;BME280;11853;48.080;11.960;2022-07-29T02:01:39;94764.03;;;21.03;76.05
23363;BME280;11853;48.080;11.960;2022-07-29T02:04:08;94751.63;;;21.02;76.26
23363;BME280;11853;48.080;11.960;2022-07-29T02:06:37;94753.25;;;21.03;76.59
23363;BME280;11853;48.080;11.960;2022-07-29T02:09:04;94758.28;;;20.99;76.63
23363;BME280;11853;48.080;11.960;2022-07-29T02:11:33;94756.00;;;20.96;77.17
23363;BME280;11853;48.080;11.960;2022-07-29T02:14:01;94751.25;;;20.91;77.59
23363;BME280;11853;48.080;11.960;2022-07-29T02:16:30;94746.94;;;20.90;78.27
23363;BME280;11853;48.080;11.960;2022-07-29T02:18:59;94744.22;;;20.90;78.84
23363;BME280;11853;48.080;11.960;2022-07-29T02:21:26;94742.78;;;20.88;78.66
23363;BME280;11853;48.080;11.960;2022-07-29T02:23:54;94737.03;;;20.84;78.70
23363;BME280;11853;48.080;11.960;2022-07-29T02:26:23;94733.97;;;20.74;78.52
23363;BME280;11853;48.080;11.960;2022-07-29T02:28:51;94738.81;;;20.65;78.90
23363;BME280;11853;48.080;11.960;2022-07-29T02:31:20;94748.13;;;20.69;79.58
23363;BME280;11853;48.080;11.960;2022-07-29T02:33:46;94738.81;;;20.65;79.64
23363;BME280;11853;48.080;11.960;2022-07-29T02:36:14;94726.00;;;20.61;80.01
23363;BME280;11853;48.080;11.960;2022-07-29T02:38:42;94730.59;;;20.54;79.95
23363;BME280;11853;48.080;11.960;2022-07-29T02:41:26;94718.16;;;20.53;79.86
23363;BME280;11853;48.080;11.960;2022-07-29T02:43:58;94719.38;;;20.50;79.91
23363;BME280;11853;48.080;11.960;2022-07-29T02:46:33;94721.03;;;20.51;79.72
23363;BME280;11853;48.080;11.960;2022-07-29T02:49:08;94713.97;;;20.57;79.98
23363;BME280;11853;48.080;11.960;2022-07-29T02:51:43;94714.41;;;20.54;80.14
23363;BME280;11853;48.080;11.960;2022-07-29T02:54:14;94711.34;;;20.43;80.05
23363;BME280;11853;48.080;11.960;2022-07-29T02:56:43;94705.41;;;20.28;79.54
23363;BME280;11853;48.080;11.960;2022-07-29T02:59:11;94709.22;;;20.20;79.93
23363;BME280;11853;48.080;11.960;2022-07-29T03:01:40;94711.22;;;20.32;79.98
23363;BME280;11853;48.080;11.960;2022-07-29T03:04:09;94712.44;;;20.36;80.56
23363;BME280;11853;48.080;11.960;2022-07-29T03:06:37;94708.25;;;20.40;80.83
23363;BME280;11853;48.080;11.960;2022-07-29T03:09:06;94705.34;;;20.41;80.75
23363;BME280;11853;48.080;11.960;2022-07-29T03:11:33;94712.63;;;20.41;80.55
23363;BME280;11853;48.080;11.960;2022-07-29T03:14:00;94702.91;;;20.33;80.16
23363;BME280;11853;48.080;11.960;2022-07-29T03:16:26;94705.22;;;20.30;80.51
23363;BME280;11853;48.080;11.960;2022-07-29T03:18:53;94703.72;;;20.34;80.34
23363;BME280;11853;48.080;11.960;2022-07-29T03:21:18;94697.31;;;20.35;80.63
23363;BME280;11853;48.080;11.960;2022-07-29T03:23:44;94703.09;;;20.38;80.25
23363;BME280;11853;48.080;11.960;2022-07-29T03:26:13;94700.16;;;20.40;81.47
23363;BME280;11853;48.080;11.960;2022-07-29T03:28:38;94699.56;;;20.38;81.26
23363;BME280;11853;48.080;11.960;2022-07-29T03:31:04;94697.09;;;20.36;80.92
23363;BME280;11853;48.080;11.960;2022-07-29T03:33:29;94700.84;;;20.35;80.85
23363;BME280;11853;48.080;11.960;2022-07-29T03:35:56;94695.66;;;20.34;80.84
23363;BME280;11853;48.080;11.960;2022-07-29T03:38:24;94689.44;;;20.33;81.36
23363;BME280;11853;48.080;11.960;2022-07-29T03:41:09;94694.00;;;20.33;81.71
23363;BME280;11853;48.080;11.960;2022-07-29T03:43:38;94699.16;;;20.34;81.36
23363;BME280;11853;48.080;11.960;2022-07-29T03:46:09;94696.25;;;20.36;81.54
23363;BME280;11853;48.080;11.960;2022-07-29T03:48:39;94694.00;;;20.33;81.82
23363;BME280;11853;48.080;11.960;2022-07-29T03:51:07;94688.00;;;20.31;82.99
23363;BME280;11853;48.080;11.960;2022-07-29T03:53:33;94697.94;;;20.30;83.90
23363;BME280;11853;48.080;11.960;2022-07-29T03:56:02;94697.94;;;20.30;84.19
23363;BME280;11853;48.080;11.960;2022-07-29T03:58:29;94705.59;;;20.33;84.54
23363;BME280;11853;48.080;11.960;2022-07-29T04:00:56;94704.97;;;20.31;83.99
23363;BME280;11853;48.080;11.960;2022-07-29T04:03:22;94701.47;;;20.31;84.26
23363;BME280;11853;48.080;11.960;2022-07-29T04:06:05;94708.72;;;20.30;84.27
23363;BME280;11853;48.080;11.960;2022-07-29T04:08:32;94700.91;;;20.22;84.15
23363;BME280;11853;48.080;11.960;2022-07-29T04:10:58;94704.41;;;20.22;84.08
23363;BME280;11853;48.080;11.960;2022-07-29T04:13:24;94707.94;;;20.23;83.95
23363;BME280;11853;48.080;11.960;2022-07-29T04:15:49;94702.97;;;20.20;83.82
23363;BME280;11853;48.080;11.960;2022-07-29T04:18:15;94709.84;;;20.16;83.92
23363;BME280;11853;48.080;11.960;2022-07-29T04:20:40;94704.28;;;20.11;84.02
23363;BME280;11853;48.080;11.960;2022-07-29T04:23:06;94707.78;;;20.11;83.84
23363;BME280;11853;48.080;11.960;2022-07-29T04:25:31;94700.97;;;20.09;84.16
23363;BME280;11853;48.080;11.960;2022-07-29T04:27:57;94709.28;;;20.07;84.81
23363;BME280;11853;48.080;11.960;2022-07-29T04:30:26;94709.91;;;20.09;84.76
23363;BME280;11853;48.080;11.960;2022-07-29T04:32:51;94703.50;;;20.03;84.87
23363;BME280;11853;48.080;11.960;2022-07-29T04:35:18;94720.25;;;20.06;84.75
23363;BME280;11853;48.080;11.960;2022-07-29T04:37:44;94716.09;;;20.10;84.63
23363;BME280;11853;48.080;11.960;2022-07-29T04:40:10;94718.59;;;20.05;84.91
23363;BME280;11853;48.080;11.960;2022-07-29T04:42:35;94720.03;;;20.07;85.29
23363;BME280;11853;48.080;11.960;2022-07-29T04:45:01;94722.97;;;19.99;85.59
23363;BME280;11853;48.080;11.960;2022-07-29T04:47:26;94720.09;;;20.00;85.71
23363;BME280;11853;48.080;11.960;2022-07-29T04:49:52;94724.03;;;19.98;84.94
23363;BME280;11853;48.080;11.960;2022-07-29T04:52:17;94727.16;;;19.95;84.96
23363;BME280;11853;48.080;11.960;2022-07-29T04:54:43;94725.91;;;19.97;84.95
23363;BME280;11853;48.080;11.960;2022-07-29T04:57:08;94731.28;;;19.97;84.90
23363;BME280;11853;48.080;11.960;2022-07-29T04:59:34;94729.22;;;19.93;84.95
23363;BME280;11853;48.080;11.960;2022-07-29T05:02:00;94731.72;;;19.88;85.61
23363;BME280;11853;48.080;11.960;2022-07-29T05:04:25;94727.59;;;19.85;85.88
23363;BME280;11853;48.080;11.960;2022-07-29T05:06:51;94735.47;;;19.80;85.75
23363;BME280;11853;48.080;11.960;2022-07-29T05:09:16;94740.69;;;19.75;85.36
23363;BME280;11853;48.080;11.960;2022-07-29T05:11:42;94741.72;;;19.80;84.31
23363;BME280;11853;48.080;11.960;2022-07-29T05:14:07;94746.44;;;19.85;84.74
23363;BME280;11853;48.080;11.960;2022-07-29T05:16:33;94751.41;;;19.88;84.29
23363;BME280;11853;48.080;11.960;2022-07-29T05:18:58;94756.59;;;19.90;85.10
23363;BME280;11853;48.080;11.960;2022-07-29T05:21:24;94759.25;;;19.96;85.22
23363;BME280;11853;48.080;11.960;2022-07-29T05:23:50;94761.94;;;20.03;85.02
23363;BME280;11853;48.080;11.960;2022-07-29T05:26:15;94757.38;;;20.03;84.60
23363;BME280;11853;48.080;11.960;2022-07-29T05:28:41;94763.97;;;20.08;84.71
23363;BME280;11853;48.080;11.960;2022-07-29T05:31:06;94758.53;;;20.14;84.01
23363;BME280;11853;48.080;11.960;2022-07-29T05:33:32;94764.94;;;20.20;84.12
23363;BME280;11853;48.080;11.960;2022-07-29T05:35:58;94771.91;;;20.34;84.10
23363;BME280;11853;48.080;11.960;2022-07-29T05:38:23;94763.56;;;20.49;83.73
23363;BME280;11853;48.080;11.960;2022-07-29T05:40:49;94767.81;;;20.70;83.66
23363;BME280;11853;48.080;11.960;2022-07-29T05:43:14;94763.94;;;20.91;82.10
23363;BME280;11853;48.080;11.960;2022-07-29T05:45:40;94767.16;;;21.06;82.21
23363;BME280;11853;48.080;11.960;2022-07-29T05:48:05;94770.50;;;21.02;82.41
23363;BME280;11853;48.080;11.960;2022-07-29T05:50:31;94765.31;;;21.00;82.09
23363;BME280;11853;48.080;11.960;2022-07-29T05:52:56;94769.00;;;21.06;82.53
23363;BME280;11853;48.080;11.960;2022-07-29T05:55:22;94771.78;;;21.24;83.04
23363;BME280;11853;48.080;11.960;2022-07-29T05:57:47;94772.25;;;21.46;80.97
23363;BME280;11853;48.080;11.960;2022-07-29T06:00:14;94776.22;;;21.62;79.08
23363;BME280;11853;48.080;11.960;2022-07-29T06:02:40;94778.19;;;21.73;77.89
23363;BME280;11853;48.080;11.960;2022-07-29T06:05:05;94783.31;;;21.81;77.90
23363;BME280;11853;48.080;11.960;2022-07-29T06:07:33;94776.91;;;21.94;76.76
23363;BME280;11853;48.080;11.960;2022-07-29T06:09:59;94787.06;;;21.80;76.99
23363;BME280;11853;48.080;11.960;2022-07-29T06:12:24;94786.22;;;21.80;77.69
23363;BME280;11853;48.080;11.960;2022-07-29T06:14:50;94789.44;;;21.70;77.38
23363;BME280;11853;48.080;11.960;2022-07-29T06:17:16;94790.50;;;21.69;78.76
23363;BME280;11853;48.080;11.960;2022-07-29T06:19:42;94792.75;;;21.72;78.69
23363;BME280;11853;48.080;11.960;2022-07-29T06:22:07;94792.75;;;21.72;79.88
23363;BME280;11853;48.080;11.960;2022-07-29T06:24:33;94793.22;;;21.69;78.74
23363;BME280;11853;48.080;11.960;2022-07-29T06:26:58;94798.06;;;21.61;79.49
23363;BME280;11853;48.080;11.960;2022-07-29T06:29:27;94796.63;;;21.58;79.62
23363;BME280;11853;48.080;11.960;2022-07-29T06:31:52;94795.56;;;21.59;79.92
23363;BME280;11853;48.080;11.960;2022-07-29T06:34:18;94797.91;;;21.55;79.46
23363;BME280;11853;48.080;11.960;2022-07-29T06:36:44;94798.66;;;21.63;80.03
23363;BME280;11853;48.080;11.960;2022-07-29T06:39:10;94792.75;;;21.72;80.11
23363;BME280;11853;48.080;11.960;2022-07-29T06:41:35;94796.13;;;21.86;78.49
23363;BME280;11853;48.080;11.960;2022-07-29T06:44:01;94795.66;;;21.71;78.91
23363;BME280;11853;48.080;11.960;2022-07-29T06:46:26;94795.66;;;21.71;80.52
23363;BME280;11853;48.080;11.960;2022-07-29T06:48:53;94797.31;;;21.72;78.93
23363;BME280;11853;48.080;11.960;2022-07-29T06:51:18;94795.75;;;21.82;77.70
23363;BME280;11853;48.080;11.960;2022-07-29T06:53:44;94800.88;;;21.91;79.00
23363;BME280;11853;48.080;11.960;2022-07-29T06:56:10;94794.09;;;22.00;77.91
23363;BME280;11853;48.080;11.960;2022-07-29T06:58:37;94807.31;;;22.08;79.24
23363;BME280;11853;48.080;11.960;2022-07-29T07:01:04;94798.75;;;22.18;77.97
23363;BME280;11853;48.080;11.960;2022-07-29T07:03:31;94800.28;;;22.25;77.23
23363;BME280;11853;48.080;11.960;2022-07-29T07:05:57;94805.13;;;22.23;75.58
23363;BME280;11853;48.080;11.960;2022-07-29T07:08:23;94802.41;;;22.23;78.19
23363;BME280;11853;48.080;11.960;2022-07-29T07:10:49;94803.75;;;22.33;76.46
23363;BME280;11853;48.080;11.960;2022-07-29T07:13:15;94807.88;;;22.35;76.09
23363;BME280;11853;48.080;11.960;2022-07-29T07:15:43;94802.75;;;22.45;76.72
23363;BME280;11853;48.080;11.960;2022-07-29T07:18:09;94809.38;;;22.49;75.71
23363;BME280;11853;48.080;11.960;2022-07-29T07:20:35;94797.84;;;22.54;76.10
23363;BME280;11853;48.080;11.960;2022-07-29T07:23:02;94797.53;;;22.62;76.17
23363;BME280;11853;48.080;11.960;2022-07-29T07:25:27;94797.22;;;22.70;76.20
23363;BME280;11853;48.080;11.960;2022-07-29T07:27:53;94792.31;;;22.79;75.62
23363;BME280;11853;48.080;11.960;2022-07-29T07:30:19;94796.28;;;22.95;74.84
23363;BME280;11853;48.080;11.960;2022-07-29T07:32:44;94795.84;;;23.10;75.15
23363;BME280;11853;48.080;11.960;2022-07-29T07:35:10;94794.81;;;23.23;75.24
23363;BME280;11853;48.080;11.960;2022-07-29T07:37:36;94801.78;;;23.42;73.13
23363;BME280;11853;48.080;11.960;2022-07-29T07:40:03;94802.03;;;23.52;67.36
23363;BME280;11853;48.080;11.960;2022-07-29T07:42:29;94797.66;;;23.51;69.15
23363;BME280;11853;48.080;11.960;2022-07-29T07:44:55;94801.56;;;23.55;69.66
23363;BME280;11853;48.080;11.960;2022-07-29T07:47:20;94801.66;;;23.60;71.21
23363;BME280;11853;48.080;11.960;2022-07-29T07:49:46;94806.75;;;23.69;71.03
23363;BME280;11853;48.080;11.960;2022-07-29T07:52:13;94805.25;;;23.73;71.09
23363;BME280;11853;48.080;11.960;2022-07-29T07:54:39;94805.94;;;23.80;71.92
23363;BME280;11853;48.080;11.960;2022-07-29T07:57:04;94804.78;;;23.76;70.12
23363;BME280;11853;48.080;11.960;2022-07-29T07:59:30;94803.59;;;23.83;67.30
23363;BME280;11853;48.080;11.960;2022-07-29T08:01:55;94795.47;;;23.72;68.01
23363;BME280;11853;48.080;11.960;2022-07-29T08:04:24;94811.50;;;23.85;68.97
23363;BME280;11853;48.080;11.960;2022-07-29T08:06:50;94804.31;;;23.91;67.31
23363;BME280;11853;48.080;11.960;2022-07-29T08:09:16;94805.13;;;23.91;68.10
23363;BME280;11853;48.080;11.960;2022-07-29T08:11:41;94796.50;;;23.94;68.02
23363;BME280;11853;48.080;11.960;2022-07-29T08:14:07;94797.34;;;24.07;68.50
23363;BME280;11853;48.080;11.960;2022-07-29T08:16:32;94799.47;;;24.04;68.89
23363;BME280;11853;48.080;11.960;2022-07-29T08:18:58;94799.09;;;24.13;70.42
23363;BME280;11853;48.080;11.960;2022-07-29T08:21:24;94793.88;;;24.23;69.50
23363;BME280;11853;48.080;11.960;2022-07-29T08:23:50;94801.06;;;24.29;65.28
23363;BME280;11853;48.080;11.960;2022-07-29T08:26:40;94799.03;;;24.36;64.81
23363;BME280;11853;48.080;11.960;2022-07-29T08:29:05;94803.31;;;24.44;64.05
23363;BME280;11853;48.080;11.960;2022-07-29T08:31:31;94803.16;;;24.50;65.62
23363;BME280;11853;48.080;11.960;2022-07-29T08:33:59;94805.88;;;24.50;64.13
23363;BME280;11853;48.080;11.960;2022-07-29T08:36:26;94800.19;;;24.52;65.96
23363;BME280;11853;48.080;11.960;2022-07-29T08:38:52;94805.97;;;24.56;65.86
23363;BME280;11853;48.080;11.960;2022-07-29T08:41:20;94808.78;;;24.61;65.00
23363;BME280;11853;48.080;11.960;2022-07-29T08:43:47;94810.88;;;24.70;65.55
23363;BME280;11853;48.080;11.960;2022-07-29T08:46:13;94811.47;;;24.72;64.41
23363;BME280;11853;48.080;11.960;2022-07-29T08:48:40;94806.47;;;24.53;65.18
23363;BME280;11853;48.080;11.960;2022-07-29T08:51:07;94807.63;;;24.57;65.36
23363;BME280;11853;48.080;11.960;2022-07-29T08:53:34;94802.97;;;24.69;65.35
23363;BME280;11853;48.080;11.960;2022-07-29T08:56:00;94806.88;;;24.73;64.72
23363;BME280;11853;48.080;11.960;2022-07-29T08:58:31;94810.84;;;24.82;66.10
23363;BME280;11853;48.080;11.960;2022-07-29T09:00:58;94809.28;;;24.86;64.07
23363;BME280;11853;48.080;11.960;2022-07-29T09:03:30;94806.16;;;24.94;66.33
23363;BME280;11853;48.080;11.960;2022-07-29T09:05:58;94802.56;;;25.06;65.08
23363;BME280;11853;48.080;11.960;2022-07-29T09:08:24;94802.53;;;25.17;65.64
23363;BME280;11853;48.080;11.960;2022-07-29T09:10:50;94797.63;;;25.31;64.46
23363;BME280;11853;48.080;11.960;2022-07-29T09:13:16;94793.19;;;25.42;63.23
23363;BME280;11853;48.080;11.960;2022-07-29T09:15:42;94805.69;;;25.43;63.27
23363;BME280;11853;48.080;11.960;2022-07-29T09:18:08;94792.69;;;25.28;62.99
23363;BME280;11853;48.080;11.960;2022-07-29T09:20:33;94798.09;;;25.28;63.71
23363;BME280;11853;48.080;11.960;2022-07-29T09:23:17;94797.78;;;25.25;62.37
23363;BME280;11853;48.080;11.960;2022-07-29T09:25:43;94797.53;;;25.26;63.78
23363;BME280;11853;48.080;11.960;2022-07-29T09:28:13;94808.31;;;25.38;64.14
23363;BME280;11853;48.080;11.960;2022-07-29T09:30:55;94796.81;;;25.48;62.72
23363;BME280;11853;48.080;11.960;2022-07-29T09:33:23;94807.41;;;25.32;62.83
23363;BME280;11853;48.080;11.960;2022-07-29T09:36:18;94800.16;;;25.38;63.24
23363;BME280;11853;48.080;11.960;2022-07-29T09:38:57;94799.03;;;25.51;65.00
23363;BME280;11853;48.080;11.960;2022-07-29T09:41:24;94798.13;;;25.62;66.08
23363;BME280;11853;48.080;11.960;2022-07-29T09:43:54;94790.09;;;25.72;64.91
23363;BME280;11853;48.080;11.960;2022-07-29T09:46:20;94796.78;;;25.81;62.22
23363;BME280;11853;48.080;11.960;2022-07-29T09:49:05;94791.69;;;25.85;62.67
23363;BME280;11853;48.080;11.960;2022-07-29T09:51:32;94792.03;;;25.89;61.48
23363;BME280;11853;48.080;11.960;2022-07-29T09:53:57;94792.03;;;25.89;60.69
23363;BME280;11853;48.080;11.960;2022-07-29T09:56:45;94789.63;;;25.92;61.92
23363;BME280;11853;48.080;11.960;2022-07-29T09:59:11;94784.03;;;25.99;62.65
23363;BME280;11853;48.080;11.960;2022-07-29T10:01:37;94785.72;;;26.05;61.45
23363;BME280;11853;48.080;11.960;2022-07-29T10:04:03;94780.69;;;26.14;61.62
23363;BME280;11853;48.080;11.960;2022-07-29T10:06:29;94791.44;;;26.25;62.36
23363;BME280;11853;48.080;11.960;2022-07-29T10:08:54;94785.25;;;26.30;60.03
23363;BME280;11853;48.080;11.960;2022-07-29T10:11:20;94784.41;;;26.29;59.65
23363;BME280;11853;48.080;11.960;2022-07-29T10:13:47;94772.72;;;26.29;59.58
23363;BME280;11853;48.080;11.960;2022-07-29T10:16:14;94771.16;;;26.33;60.17
23363;BME280;11853;48.080;11.960;2022-07-29T10:18:41;94768.97;;;26.35;60.30
23363;BME280;11853;48.080;11.960;2022-07-29T10:21:09;94782.41;;;26.42;61.24
23363;BME280;11853;48.080;11.960;2022-07-29T10:23:36;94775.19;;;26.52;60.45
23363;BME280;11853;48.080;11.960;2022-07-29T10:26:03;94781.59;;;26.63;61.11
23363;BME280;11853;48.080;11.960;2022-07-29T10:28:30;94779.44;;;26.65;58.88
23363;BME280;11853;48.080;11.960;2022-07-29T10:31:01;94776.28;;;26.51;57.88
23363;BME280;11853;48.080;11.960;2022-07-29T10:33:43;94773.91;;;26.38;57.57
23363;BME280;11853;48.080;11.960;2022-07-29T10:36:26;94785.75;;;26.27;57.20
23363;BME280;11853;48.080;11.960;2022-07-29T10:39:26;94774.50;;;26.18;58.37
23363;BME280;11853;48.080;11.960;2022-07-29T10:42:25;94771.69;;;26.13;58.99
23363;BME280;11853;48.080;11.960;2022-07-29T10:44:53;94767.28;;;26.07;58.99
23363;BME280;11853;48.080;11.960;2022-07-29T10:47:26;94775.97;;;26.09;58.89
23363;BME280;11853;48.080;11.960;2022-07-29T10:50:00;94778.69;;;26.09;59.38
23363;BME280;11853;48.080;11.960;2022-07-29T10:52:58;94770.53;;;26.09;59.17
23363;BME280;11853;48.080;11.960;2022-07-29T10:55:38;94765.44;;;26.13;60.12
23363;BME280;11853;48.080;11.960;2022-07-29T10:58:21;94774.00;;;26.21;59.79
23363;BME280;11853;48.080;11.960;2022-07-29T11:00:50;94777.03;;;26.25;60.48
23363;BME280;11853;48.080;11.960;2022-07-29T11:06:07;94772.72;;;26.29;59.87
23363;BME280;11853;48.080;11.960;2022-07-29T11:08:33;94777.66;;;26.32;60.89
23363;BME280;11853;48.080;11.960;2022-07-29T11:13:47;94775.78;;;26.33;60.69
23363;BME280;11853;48.080;11.960;2022-07-29T11:16:16;94776.75;;;26.26;60.65
23363;BME280;11853;48.080;11.960;2022-07-29T11:21:43;94780.41;;;26.15;59.64
23363;BME280;11853;48.080;11.960;2022-07-29T11:24:17;94771.06;;;26.06;59.60
23363;BME280;11853;48.080;11.960;2022-07-29T11:26:43;94780.78;;;26.02;59.64
23363;BME280;11853;48.080;11.960;2022-07-29T11:29:21;94785.56;;;25.95;59.91
23363;BME280;11853;48.080;11.960;2022-07-29T11:31:51;94784.13;;;25.87;59.81
23363;BME280;11853;48.080;11.960;2022-07-29T11:34:30;94786.72;;;25.82;60.33
23363;BME280;11853;48.080;11.960;2022-07-29T11:37:23;94784.75;;;25.77;61.12
23363;BME280;11853;48.080;11.960;2022-07-29T11:45:00;94780.72;;;25.63;62.11
23363;BME280;11853;48.080;11.960;2022-07-29T11:47:28;94781.22;;;25.60;62.77
23363;BME280;11853;48.080;11.960;2022-07-29T11:49:55;94775.22;;;25.58;62.48
23363;BME280;11853;48.080;11.960;2022-07-29T11:52:22;94777.19;;;25.62;63.35
23363;BME280;11853;48.080;11.960;2022-07-29T11:54:50;94777.00;;;25.69;63.96
23363;BME280;11853;48.080;11.960;2022-07-29T11:57:16;94780.97;;;25.78;64.33
23363;BME280;11853;48.080;11.960;2022-07-29T11:59:44;94769.44;;;25.88;64.05
23363;BME280;11853;48.080;11.960;2022-07-29T12:02:11;94775.53;;;25.95;61.79
23363;BME280;11853;48.080;11.960;2022-07-29T12:07:17;94759.34;;;26.05;63.49
23363;BME280;11853;48.080;11.960;2022-07-29T12:09:50;94758.03;;;26.08;62.86
23363;BME280;11853;48.080;11.960;2022-07-29T12:12:19;94750.44;;;26.10;58.35
23363;BME280;11853;48.080;11.960;2022-07-29T12:14:45;94743.94;;;26.11;58.74
23363;BME280;11853;48.080;11.960;2022-07-29T12:17:28;94738.25;;;26.13;61.07
23363;BME280;11853;48.080;11.960;2022-07-29T12:19:55;94742.59;;;26.14;61.10
23363;BME280;11853;48.080;11.960;2022-07-29T12:22:29;94737.28;;;26.02;56.01
23363;BME280;11853;48.080;11.960;2022-07-29T12:24:59;94736.47;;;26.01;54.91
23363;BME280;11853;48.080;11.960;2022-07-29T12:27:25;94729.13;;;26.02;57.67
23363;BME280;11853;48.080;11.960;2022-07-29T12:29:56;94737.00;;;26.03;58.77
23363;BME280;11853;48.080;11.960;2022-07-29T12:32:22;94738.34;;;26.01;57.84
23363;BME280;11853;48.080;11.960;2022-07-29T12:34:48;94747.59;;;26.00;57.37
23363;BME280;11853;48.080;11.960;2022-07-29T12:37:13;94736.97;;;25.98;56.36
23363;BME280;11853;48.080;11.960;2022-07-29T12:39:39;94731.25;;;26.00;56.17
23363;BME280;11853;48.080;11.960;2022-07-29T12:42:15;94729.69;;;26.04;56.87
23363;BME280;11853;48.080;11.960;2022-07-29T12:44:48;94729.69;;;26.04;55.71
23363;BME280;11853;48.080;11.960;2022-07-29T12:47:15;94724.22;;;26.04;56.38
23363;BME280;11853;48.080;11.960;2022-07-29T12:49:43;94726.47;;;26.07;57.35
23363;BME280;11853;48.080;11.960;2022-07-29T12:54:54;94719.50;;;26.16;54.61
23363;BME280;11853;48.080;11.960;2022-07-29T12:57:19;94727.16;;;26.19;55.05
23363;BME280;11853;48.080;11.960;2022-07-29T13:00:02;94722.31;;;26.21;55.38
23363;BME280;11853;48.080;11.960;2022-07-29T13:02:28;94725.03;;;26.21;53.66
23363;BME280;11853;48.080;11.960;2022-07-29T13:04:58;94729.63;;;26.21;53.71
23363;BME280;11853;48.080;11.960;2022-07-29T13:07:25;94728.81;;;26.20;52.95
23363;BME280;11853;48.080;11.960;2022-07-29T13:09:52;94724.97;;;26.16;53.04
23363;BME280;11853;48.080;11.960;2022-07-29T13:12:19;94725.47;;;26.13;52.82
23363;BME280;11853;48.080;11.960;2022-07-29T13:14:49;94727.69;;;26.16;54.27
23363;BME280;11853;48.080;11.960;2022-07-29T13:17:18;94727.97;;;26.20;54.75
23363;BME280;11853;48.080;11.960;2022-07-29T13:19:50;94726.97;;;26.26;55.49
23363;BME280;11853;48.080;11.960;2022-07-29T13:22:18;94724.06;;;26.33;56.97
23363;BME280;11853;48.080;11.960;2022-07-29T13:24:55;94722.47;;;26.37;56.52